createdAt,value
2019-01-28T00:00:56.734Z,22.00
2019-01-28T00:03:28.379Z,22.53
2019-01-28T00:05:59.941Z,23.07
2019-01-28T00:08:31.472Z,22.83
2019-01-28T00:11:03.120Z,22.67
2019-01-28T00:13:34.691Z,23.10
2019-01-28T00:16:06.452Z,21.17
2019-01-28T00:18:37.954Z,22.20
2019-01-28T00:21:09.676Z,20.93
2019-01-28T00:23:41.176Z,22.27
2019-01-28T00:26:12.624Z,21.30
2019-01-28T00:28:44.126Z,21.73
2019-01-28T00:31:15.649Z,21.83
2019-01-28T00:33:47.224Z,21.97
2019-01-28T00:36:18.901Z,21.73
2019-01-28T00:38:50.399Z,21.97
2019-01-28T00:41:23.189Z,20.50
2019-01-28T00:43:54.681Z,21.93
2019-01-28T00:46:26.181Z,21.13
2019-01-28T00:48:57.772Z,23.00
2019-01-28T00:51:29.372Z,22.37
2019-01-28T00:54:01.052Z,22.43
2019-01-28T00:56:32.687Z,20.70
2019-01-28T00:59:04.151Z,23.73
2019-01-28T01:01:35.795Z,21.00
2019-01-28T01:04:07.395Z,21.33
2019-01-28T01:06:39.131Z,21.03
2019-01-28T01:09:10.919Z,21.27
2019-01-28T01:11:42.630Z,23.57
2019-01-28T01:14:14.135Z,21.30
2019-01-28T01:16:45.711Z,20.93
2019-01-28T01:19:17.256Z,21.73
2019-01-28T01:21:48.872Z,21.60
2019-01-28T01:24:20.438Z,21.23
2019-01-28T01:26:51.921Z,21.97
2019-01-28T01:29:23.556Z,21.13
2019-01-28T01:31:55.110Z,21.50
2019-01-28T01:34:26.651Z,21.33
2019-01-28T01:36:58.211Z,22.63
2019-01-28T01:39:29.651Z,23.30
2019-01-28T01:42:01.302Z,22.10
2019-01-28T01:44:32.939Z,20.33
2019-01-28T01:47:04.553Z,22.80
2019-01-28T01:49:36.125Z,21.73
2019-01-28T01:52:07.863Z,18.97
2019-01-28T01:54:39.503Z,21.27
2019-01-28T01:57:11.201Z,21.30
2019-01-28T01:59:42.672Z,22.07
2019-01-28T02:02:14.136Z,21.33
2019-01-28T02:04:45.782Z,20.43
2019-01-28T02:07:17.293Z,21.70
2019-01-28T02:09:48.821Z,22.37
2019-01-28T02:12:20.409Z,21.40
2019-01-28T02:14:51.995Z,21.47
2019-01-28T02:17:23.553Z,21.50
2019-01-28T02:19:55.039Z,21.70
2019-01-28T02:22:26.632Z,23.17
2019-01-28T02:24:58.164Z,21.80
2019-01-28T02:27:29.599Z,19.53
2019-01-28T02:30:01.084Z,22.53
2019-01-28T02:32:32.735Z,20.93
2019-01-28T02:35:04.279Z,21.83
2019-01-28T02:37:36.069Z,21.83
2019-01-28T02:40:10.519Z,21.57
2019-01-28T02:42:42.181Z,20.47
2019-01-28T02:45:14.578Z,22.00
2019-01-28T02:47:46.084Z,21.13
2019-01-28T02:50:19.113Z,20.93
2019-01-28T02:52:50.734Z,19.33
2019-01-28T02:55:22.312Z,23.67
2019-01-28T02:57:53.803Z,21.20
2019-01-28T03:00:25.591Z,19.60
2019-01-28T03:02:57.227Z,19.83
2019-01-28T03:05:28.802Z,19.73
2019-01-28T03:08:00.394Z,20.20
2019-01-28T03:10:32.031Z,21.70
2019-01-28T03:13:03.470Z,21.70
2019-01-28T03:15:35.042Z,21.53
2019-01-28T03:18:07.527Z,22.93
2019-01-28T03:20:39.009Z,26.70
2019-01-28T03:23:11.800Z,22.93
2019-01-28T03:25:43.307Z,21.87
2019-01-28T03:28:14.813Z,22.53
2019-01-28T03:30:46.352Z,20.73
2019-01-28T03:33:18.586Z,19.63
2019-01-28T03:35:50.112Z,22.13
2019-01-28T03:38:21.676Z,21.87
2019-01-28T03:40:53.230Z,22.60
2019-01-28T03:43:25.911Z,24.30
2019-01-28T03:45:57.438Z,24.20
2019-01-28T03:48:28.914Z,23.77
2019-01-28T03:51:00.411Z,24.93
2019-01-28T03:53:32.133Z,25.37
2019-01-28T03:56:03.794Z,30.80
2019-01-28T03:58:35.281Z,35.33
2019-01-28T04:01:07.042Z,59.93
2019-01-28T04:03:38.628Z,62.40
2019-01-28T04:06:10.152Z,51.93
2019-01-28T04:08:41.706Z,39.17
2019-01-28T04:11:13.240Z,51.57
2019-01-28T04:13:44.701Z,40.33
2019-01-28T04:16:16.191Z,48.97
2019-01-28T04:18:47.861Z,45.03
2019-01-28T04:21:19.426Z,61.47
2019-01-28T04:23:51.000Z,25.80
2019-01-28T04:26:23.662Z,33.77
2019-01-28T04:28:55.165Z,31.73
2019-01-28T04:31:28.178Z,25.57
2019-01-28T04:34:00.124Z,22.70
2019-01-28T04:36:31.762Z,24.80
2019-01-28T04:39:03.877Z,29.40
2019-01-28T04:41:35.433Z,27.20
2019-01-28T04:44:07.107Z,26.83
2019-01-28T04:46:38.761Z,24.60
2019-01-28T04:49:10.314Z,26.10
2019-01-28T04:51:41.793Z,24.73
2019-01-28T04:54:13.387Z,33.70
2019-01-28T04:56:45.009Z,27.23
2019-01-28T04:59:16.548Z,33.87
2019-01-28T05:01:48.134Z,29.00
2019-01-28T05:04:19.757Z,30.67
2019-01-28T05:06:51.420Z,43.07
2019-01-28T05:09:22.871Z,32.67
2019-01-28T05:11:54.409Z,42.00
2019-01-28T05:14:25.912Z,29.20
2019-01-28T05:16:57.613Z,37.20
2019-01-28T05:19:30.735Z,45.20
2019-01-28T05:22:02.477Z,27.07
2019-01-28T05:24:33.987Z,25.43
2019-01-28T05:27:05.443Z,35.80
2019-01-28T05:29:36.983Z,21.50
2019-01-28T05:32:08.582Z,23.83
2019-01-28T05:34:40.122Z,24.77
2019-01-28T05:37:12.651Z,24.57
2019-01-28T05:39:44.179Z,22.77
2019-01-28T05:42:15.914Z,23.03
2019-01-28T05:44:47.475Z,26.80
2019-01-28T05:47:18.990Z,26.67
2019-01-28T05:49:50.589Z,26.63
2019-01-28T05:52:22.194Z,23.27
2019-01-28T05:54:53.896Z,23.23
2019-01-28T05:57:25.356Z,21.33
2019-01-28T05:59:59.385Z,28.43
2019-01-28T06:02:30.931Z,27.77
2019-01-28T06:05:03.580Z,21.90
2019-01-28T06:07:35.133Z,23.93
2019-01-28T06:10:07.791Z,28.03
2019-01-28T06:12:39.320Z,24.47
2019-01-28T06:15:13.734Z,25.73
2019-01-28T06:17:45.393Z,26.43
2019-01-28T06:20:19.511Z,25.90
2019-01-28T06:22:51.139Z,24.00
2019-01-28T06:25:22.791Z,24.17
2019-01-28T06:27:54.298Z,31.53
2019-01-28T06:30:28.142Z,26.93
2019-01-28T06:32:59.806Z,22.40
2019-01-28T06:35:31.477Z,24.50
2019-01-28T06:38:03.089Z,24.60
2019-01-28T06:40:36.451Z,28.97
2019-01-28T06:43:08.111Z,27.00
2019-01-28T06:45:39.637Z,26.53
2019-01-28T06:48:12.351Z,24.23
2019-01-28T06:50:43.909Z,27.07
2019-01-28T06:53:15.495Z,26.83
2019-01-28T06:55:46.893Z,26.63
2019-01-28T06:58:18.400Z,36.37
2019-01-28T07:00:49.823Z,28.67
2019-01-28T07:03:21.334Z,24.70
2019-01-28T07:05:52.854Z,20.90
2019-01-28T07:08:25.652Z,29.57
2019-01-28T07:10:57.267Z,27.70
2019-01-28T07:13:28.870Z,24.03
2019-01-28T07:16:01.951Z,23.83
2019-01-28T07:18:33.434Z,25.53
2019-01-28T07:21:04.989Z,25.47
2019-01-28T07:23:36.383Z,23.07
2019-01-28T07:26:08.029Z,21.83
2019-01-28T07:28:39.579Z,25.53
2019-01-28T07:31:11.028Z,22.47
2019-01-28T07:33:42.394Z,20.23
2019-01-28T07:36:14.013Z,22.90
2019-01-28T07:38:45.481Z,21.57
2019-01-28T07:41:17.101Z,19.70
2019-01-28T07:43:48.630Z,23.60
2019-01-28T07:46:20.152Z,22.47
2019-01-28T07:48:51.643Z,19.43
2019-01-28T07:51:23.116Z,24.93
2019-01-28T07:53:54.693Z,21.87
2019-01-28T07:56:26.359Z,23.63
2019-01-28T07:58:57.810Z,31.73
2019-01-28T08:01:29.383Z,35.70
2019-01-28T08:04:00.912Z,29.67
2019-01-28T08:06:32.494Z,29.77
2019-01-28T08:09:05.993Z,31.20
2019-01-28T08:11:37.640Z,38.97
2019-01-28T08:14:09.234Z,32.23
2019-01-28T08:16:41.928Z,37.43
2019-01-28T08:19:13.592Z,30.57
2019-01-28T08:21:45.243Z,31.57
2019-01-28T08:24:16.839Z,38.77
2019-01-28T08:26:48.422Z,42.50
2019-01-28T08:29:20.081Z,46.53
2019-01-28T08:31:51.783Z,37.70
2019-01-28T08:34:23.299Z,58.17
2019-01-28T08:36:54.907Z,56.70
2019-01-28T08:39:26.462Z,34.83
2019-01-28T08:41:58.034Z,47.10
2019-01-28T08:44:29.457Z,34.43
2019-01-28T08:47:01.068Z,30.10
2019-01-28T08:49:32.572Z,25.53
2019-01-28T08:52:04.547Z,28.63
2019-01-28T08:54:37.772Z,31.13
2019-01-28T08:57:09.211Z,31.83
2019-01-28T08:59:40.799Z,46.87
2019-01-28T09:02:12.670Z,50.33
2019-01-28T09:04:44.272Z,31.03
2019-01-28T09:07:17.112Z,27.70
2019-01-28T09:09:50.976Z,31.07
2019-01-28T09:12:22.506Z,23.60
2019-01-28T09:14:54.186Z,21.30
2019-01-28T09:17:25.778Z,23.10
2019-01-28T09:19:58.974Z,26.60
2019-01-28T09:22:30.676Z,26.40
2019-01-28T09:25:02.555Z,30.80
2019-01-28T09:27:34.191Z,30.17
2019-01-28T09:30:07.475Z,27.47
2019-01-28T09:32:39.222Z,29.63
2019-01-28T09:35:11.017Z,26.97
2019-01-28T09:37:42.547Z,23.10
2019-01-28T09:40:16.021Z,25.93
2019-01-28T09:42:47.640Z,28.97
2019-01-28T09:45:21.865Z,28.10
2019-01-28T09:47:53.453Z,27.73
2019-01-28T09:50:25.702Z,34.27
2019-01-28T09:53:00.420Z,25.20
2019-01-28T09:55:32.098Z,33.57
2019-01-28T09:58:03.517Z,26.93
2019-01-28T10:00:43.935Z,28.20
2019-01-28T10:03:19.488Z,22.80
2019-01-28T10:05:53.043Z,21.13
2019-01-28T10:08:24.642Z,18.70
2019-01-28T10:10:56.255Z,22.77
2019-01-28T10:13:27.792Z,24.07
2019-01-28T10:15:59.474Z,22.43
2019-01-28T10:18:31.032Z,19.20
2019-01-28T10:21:03.545Z,21.63
2019-01-28T10:23:35.035Z,38.00
2019-01-28T10:26:06.713Z,21.63
2019-01-28T10:28:38.292Z,20.77
2019-01-28T10:31:09.959Z,19.07
2019-01-28T10:33:41.446Z,25.53
2019-01-28T10:36:13.221Z,20.67
2019-01-28T10:38:44.804Z,20.37
2019-01-28T10:41:16.385Z,20.13
2019-01-28T10:43:47.978Z,20.50
2019-01-28T10:46:20.840Z,22.53
2019-01-28T10:48:52.541Z,20.80
2019-01-28T10:51:25.201Z,18.30
2019-01-28T10:53:56.936Z,19.93
2019-01-28T10:56:28.520Z,21.40
2019-01-28T10:58:59.992Z,20.53
2019-01-28T11:01:31.524Z,19.37
2019-01-28T11:04:03.055Z,21.73
2019-01-28T11:06:34.649Z,25.17
2019-01-28T11:09:08.978Z,27.40
2019-01-28T11:11:42.416Z,21.57
2019-01-28T11:14:14.332Z,25.83
2019-01-28T11:16:46.510Z,24.70
2019-01-28T11:19:18.610Z,23.07
2019-01-28T11:21:51.165Z,24.77
2019-01-28T11:24:22.729Z,24.70
2019-01-28T11:26:56.361Z,31.40
2019-01-28T11:29:29.066Z,31.37
2019-01-28T11:32:00.702Z,27.03
2019-01-28T11:34:32.836Z,28.90
2019-01-28T11:37:04.531Z,29.73
2019-01-28T11:39:36.915Z,29.33
2019-01-28T11:42:11.110Z,30.50
2019-01-28T11:44:42.621Z,34.17
2019-01-28T11:47:14.357Z,35.30
2019-01-28T11:49:46.107Z,31.23
2019-01-28T11:52:17.641Z,31.33
2019-01-28T11:54:49.423Z,37.23
2019-01-28T11:57:20.942Z,36.60
2019-01-28T11:59:53.562Z,36.53
2019-01-28T12:02:25.001Z,41.70
2019-01-28T12:04:56.558Z,45.33
2019-01-28T12:07:28.178Z,35.20
2019-01-28T12:09:59.680Z,37.97
2019-01-28T12:12:31.708Z,40.77
2019-01-28T12:15:03.356Z,34.63
2019-01-28T12:17:34.826Z,36.10
2019-01-28T12:20:07.902Z,35.13
2019-01-28T12:22:40.989Z,50.97
2019-01-28T12:25:14.288Z,44.93
2019-01-28T12:27:45.936Z,44.17
2019-01-28T12:30:25.739Z,37.90
2019-01-28T12:32:57.517Z,39.87
2019-01-28T12:35:29.205Z,36.73
2019-01-28T12:38:00.790Z,35.80
2019-01-28T12:40:32.406Z,37.07
2019-01-28T12:43:04.026Z,34.93
2019-01-28T12:45:35.507Z,30.83
2019-01-28T12:48:07.135Z,35.07
2019-01-28T12:50:39.778Z,35.93
2019-01-28T12:53:11.381Z,29.13
2019-01-28T12:55:43.182Z,31.50
2019-01-28T12:58:14.815Z,31.77
2019-01-28T13:00:51.142Z,28.83
2019-01-28T13:03:22.751Z,30.70
2019-01-28T13:05:54.353Z,51.47
2019-01-28T13:08:27.725Z,30.20
2019-01-28T13:11:00.189Z,30.17
2019-01-28T13:13:31.818Z,32.13
2019-01-28T13:16:03.431Z,31.50
2019-01-28T13:18:35.668Z,29.00
2019-01-28T13:21:10.292Z,32.80
2019-01-28T13:23:42.998Z,30.97
2019-01-28T13:26:17.421Z,29.83
2019-01-28T13:28:51.305Z,29.90
2019-01-28T13:31:25.460Z,30.27
2019-01-28T13:33:56.943Z,31.70
2019-01-28T13:36:29.559Z,31.57
2019-01-28T13:39:01.102Z,31.43
2019-01-28T13:41:34.136Z,28.83
2019-01-28T13:44:05.584Z,34.30
2019-01-28T13:46:37.134Z,33.43
2019-01-28T13:49:08.831Z,28.57
2019-01-28T13:51:43.707Z,34.60
2019-01-28T13:54:15.704Z,31.63
2019-01-28T13:56:47.310Z,34.40
2019-01-28T13:59:18.921Z,32.33
2019-01-28T14:01:50.489Z,36.00
2019-01-28T14:04:21.943Z,35.07
2019-01-28T14:06:55.773Z,30.23
2019-01-28T14:09:27.331Z,32.87
2019-01-28T14:11:58.952Z,36.23
2019-01-28T14:14:32.873Z,32.57
2019-01-28T14:17:04.499Z,41.43
2019-01-28T14:19:37.129Z,39.77
2019-01-28T14:22:09.001Z,43.00
2019-01-28T14:24:41.711Z,37.03
2019-01-28T14:27:13.237Z,38.27
2019-01-28T14:29:44.712Z,49.87
2019-01-28T14:32:16.321Z,37.23
2019-01-28T14:34:47.754Z,37.77
2019-01-28T14:37:19.405Z,39.67
2019-01-28T14:39:50.980Z,37.83
2019-01-28T14:42:22.769Z,40.10
2019-01-28T14:44:54.412Z,39.20
2019-01-28T14:47:25.991Z,40.30
2019-01-28T14:49:59.986Z,40.40
2019-01-28T14:52:31.973Z,36.37
2019-01-28T14:55:03.828Z,34.43
2019-01-28T14:57:35.950Z,41.17
2019-01-28T15:00:09.983Z,41.67
2019-01-28T15:02:41.553Z,40.43
2019-01-28T15:05:13.943Z,37.13
2019-01-28T15:07:45.853Z,37.00
2019-01-28T15:10:18.595Z,38.40
2019-01-28T15:12:51.463Z,38.93
2019-01-28T15:15:29.740Z,38.07
2019-01-28T15:18:03.777Z,35.03
2019-01-28T15:20:36.520Z,36.47
2019-01-28T15:23:08.135Z,34.60
2019-01-28T15:25:40.410Z,38.50
2019-01-28T15:28:12.539Z,41.03
2019-01-28T15:30:46.308Z,35.47
2019-01-28T15:33:18.637Z,38.03
2019-01-28T15:35:50.453Z,33.13
2019-01-28T15:38:21.927Z,32.73
2019-01-28T15:40:54.377Z,34.43
2019-01-28T15:43:28.361Z,35.60
2019-01-28T15:46:00.071Z,33.37
2019-01-28T15:48:31.531Z,31.63
2019-01-28T15:51:03.417Z,32.33
2019-01-28T15:53:34.947Z,30.50
2019-01-28T15:56:06.889Z,34.20
2019-01-28T15:58:40.770Z,31.43
2019-01-28T16:01:12.392Z,32.17
2019-01-28T16:03:45.652Z,30.60
2019-01-28T16:06:17.147Z,26.00
2019-01-28T16:08:48.851Z,25.17
2019-01-28T16:11:21.422Z,27.13
2019-01-28T16:13:52.946Z,25.10
2019-01-28T16:16:24.623Z,24.77
2019-01-28T16:18:58.901Z,26.90
2019-01-28T16:21:30.492Z,24.43
2019-01-28T16:24:03.685Z,24.63
2019-01-28T16:26:35.349Z,26.67
2019-01-28T16:29:06.962Z,26.83
2019-01-28T16:31:38.545Z,23.90
2019-01-28T16:34:10.038Z,25.90
2019-01-28T16:36:41.591Z,29.30
2019-01-28T16:39:13.269Z,27.77
2019-01-28T16:41:44.730Z,27.33
2019-01-28T16:44:16.614Z,27.07
2019-01-28T16:46:48.281Z,21.73
2019-01-28T16:49:19.835Z,26.67
2019-01-28T16:51:52.140Z,26.00
2019-01-28T16:54:23.679Z,23.93
2019-01-28T16:56:55.174Z,23.03
2019-01-28T16:59:26.830Z,25.73
2019-01-28T17:02:00.607Z,22.47
2019-01-28T17:04:32.251Z,22.77
2019-01-28T17:07:03.868Z,24.47
2019-01-28T17:09:35.399Z,24.33
2019-01-28T17:12:07.107Z,23.70
2019-01-28T17:14:38.662Z,24.13
2019-01-28T17:17:10.225Z,22.23
2019-01-28T17:19:41.800Z,25.50
2019-01-28T17:22:13.327Z,23.93
2019-01-28T17:24:46.048Z,23.63
2019-01-28T17:27:17.768Z,20.00
2019-01-28T17:29:49.324Z,22.83
2019-01-28T17:32:21.075Z,19.03
2019-01-28T17:34:52.634Z,20.43
2019-01-28T17:37:24.203Z,20.77
2019-01-28T17:39:55.823Z,19.23
2019-01-28T17:42:27.317Z,20.23
2019-01-28T17:44:58.952Z,19.23
2019-01-28T17:47:30.446Z,18.37
2019-01-28T17:50:02.139Z,18.03
2019-01-28T17:52:33.650Z,17.83
2019-01-28T17:55:06.016Z,14.50
2019-01-28T17:57:37.669Z,17.33
2019-01-28T18:00:16.451Z,18.70
2019-01-28T18:02:48.025Z,19.40
2019-01-28T18:05:19.644Z,17.83
2019-01-28T18:07:51.272Z,18.07
2019-01-28T18:10:22.786Z,18.60
2019-01-28T18:12:54.585Z,18.70
2019-01-28T18:15:26.237Z,19.97
2019-01-28T18:17:57.853Z,20.00
2019-01-28T18:20:29.525Z,20.37
2019-01-28T18:23:04.732Z,20.63
2019-01-28T18:25:36.382Z,19.57
2019-01-28T18:28:08.472Z,19.23
2019-01-28T18:30:45.485Z,19.40
2019-01-28T18:33:17.815Z,18.83
2019-01-28T18:35:52.772Z,18.17
2019-01-28T18:38:25.013Z,18.10
2019-01-28T18:40:59.984Z,17.30
2019-01-28T18:43:31.752Z,17.03
2019-01-28T18:46:03.943Z,17.83
2019-01-28T18:48:35.630Z,16.80
2019-01-28T18:51:07.513Z,15.20
2019-01-28T18:53:41.177Z,15.20
2019-01-28T18:56:12.803Z,15.57
2019-01-28T18:58:44.310Z,15.60
2019-01-28T19:01:16.002Z,16.33
2019-01-28T19:03:47.573Z,16.03
2019-01-28T19:06:40.961Z,14.93
2019-01-28T19:09:20.172Z,16.20
2019-01-28T19:12:22.702Z,15.47
2019-01-28T19:15:05.610Z,14.57
2019-01-28T19:17:48.390Z,15.40
2019-01-28T19:20:24.969Z,14.77
2019-01-28T19:22:56.503Z,15.57
2019-01-28T19:25:28.026Z,14.27
2019-01-28T19:27:59.466Z,14.80
2019-01-28T19:30:31.106Z,15.67
2019-01-28T19:33:02.737Z,13.57
2019-01-28T19:35:34.422Z,14.03
2019-01-28T19:38:06.010Z,15.33
2019-01-28T19:40:37.605Z,14.50
2019-01-28T19:43:12.129Z,14.83
2019-01-28T19:45:43.807Z,16.40
2019-01-28T19:48:15.234Z,18.77
2019-01-28T19:50:46.744Z,15.87
2019-01-28T19:53:18.925Z,15.73
2019-01-28T19:55:50.550Z,16.07
2019-01-28T19:58:22.102Z,17.27
2019-01-28T20:00:53.612Z,17.07
2019-01-28T20:03:26.583Z,15.07
2019-01-28T20:05:58.167Z,17.73
2019-01-28T20:08:29.655Z,13.03
2019-01-28T20:11:01.267Z,15.50
2019-01-28T20:13:32.920Z,18.20
2019-01-28T20:16:04.470Z,17.47
2019-01-28T20:18:36.042Z,17.37
2019-01-28T20:21:07.655Z,16.67
2019-01-28T20:23:39.248Z,18.53
2019-01-28T20:26:10.830Z,17.00
2019-01-28T20:28:42.355Z,17.40
2019-01-28T20:31:14.123Z,19.73
2019-01-28T20:33:45.619Z,18.20
2019-01-28T20:36:17.166Z,18.27
2019-01-28T20:38:48.908Z,14.60
2019-01-28T20:41:20.589Z,14.13
2019-01-28T20:43:52.194Z,13.47
2019-01-28T20:46:23.928Z,14.37
2019-01-28T20:48:55.482Z,13.63
2019-01-28T20:51:32.101Z,14.17
2019-01-28T20:54:00.493Z,13.53
2019-01-28T20:56:32.148Z,15.50
2019-01-28T20:59:03.692Z,15.07
2019-01-28T21:01:35.486Z,16.17
2019-01-28T21:04:07.068Z,14.57
2019-01-28T21:06:38.691Z,13.07
2019-01-28T21:09:10.722Z,14.67
2019-01-28T21:11:42.340Z,11.90
2019-01-28T21:14:14.030Z,13.90
2019-01-28T21:16:45.723Z,15.03
2019-01-28T21:19:17.337Z,13.47
2019-01-28T21:21:48.962Z,13.63
2019-01-28T21:24:20.549Z,13.73
2019-01-28T21:26:52.066Z,14.70
2019-01-28T21:29:23.697Z,13.13
2019-01-28T21:31:55.220Z,15.53
2019-01-28T21:34:26.782Z,15.63
2019-01-28T21:37:30.834Z,14.80
2019-01-28T21:40:03.752Z,13.37
2019-01-28T21:42:36.305Z,19.10
2019-01-28T21:45:10.751Z,15.23
2019-01-28T21:47:55.182Z,17.60
2019-01-28T21:50:28.034Z,16.77
2019-01-28T21:53:03.315Z,20.13
2019-01-28T21:55:36.934Z,15.67
2019-01-28T21:58:08.684Z,14.73
2019-01-28T22:00:40.357Z,17.30
2019-01-28T22:03:11.921Z,14.03
2019-01-28T22:05:44.645Z,20.00
2019-01-28T22:08:16.164Z,17.03
2019-01-28T22:10:47.791Z,22.00
2019-01-28T22:13:21.984Z,18.67
2019-01-28T22:15:54.798Z,17.73
2019-01-28T22:18:27.201Z,17.97
2019-01-28T22:20:58.992Z,20.57
2019-01-28T22:23:32.102Z,18.07
2019-01-28T22:26:05.027Z,22.77
2019-01-28T22:28:36.482Z,15.00
2019-01-28T22:31:07.995Z,17.77
2019-01-28T22:33:40.684Z,18.13
2019-01-28T22:36:12.233Z,17.33
2019-01-28T22:38:46.475Z,16.97
2019-01-28T22:41:18.877Z,16.60
2019-01-28T22:43:50.425Z,16.73
2019-01-28T22:46:22.665Z,15.90
2019-01-28T22:48:55.164Z,18.67
2019-01-28T22:51:27.827Z,15.87
2019-01-28T22:53:59.500Z,20.83
2019-01-28T22:56:32.261Z,16.00
2019-01-28T22:59:03.736Z,18.87
2019-01-28T23:01:41.243Z,21.67
2019-01-28T23:04:14.166Z,16.53
2019-01-28T23:06:45.743Z,17.00
2019-01-28T23:09:18.507Z,15.73
2019-01-28T23:11:50.416Z,17.40
2019-01-28T23:14:21.977Z,16.87
2019-01-28T23:16:57.575Z,17.63
2019-01-28T23:19:29.195Z,17.43
2019-01-28T23:22:00.710Z,20.57
2019-01-28T23:24:32.358Z,23.23
2019-01-28T23:27:04.114Z,17.73
2019-01-28T23:29:37.657Z,17.60
2019-01-28T23:32:12.413Z,21.80
2019-01-28T23:34:44.029Z,15.47
2019-01-28T23:37:17.366Z,18.60
2019-01-28T23:39:49.299Z,18.27
2019-01-28T23:42:20.987Z,17.03
2019-01-28T23:44:53.444Z,17.57
2019-01-28T23:47:25.146Z,18.07
2019-01-28T23:49:56.817Z,16.80
2019-01-28T23:52:30.240Z,16.63
2019-01-28T23:55:01.767Z,19.83
2019-01-28T23:57:33.323Z,16.17
